Time;durP1;ratioP1;P1;durP2;ratioP2;P2;SDS_P1;SDS_P2;PMS_P1;PMS_P2;Temp;Humidity;BMP_temperature;BMP_pressure;BME280_temperature;BME280_humidity;BME280_pressure;Samples;Min_cycle;Max_cycle;Signal;HPM_P1;HPM_P2
2022/06/29 00:00:19;;;;;;;5.10;1.63;;;23.60;58.20;;;;;;4935572;29;20032;-73
2022/06/29 00:02:46;;;;;;;4.25;1.50;;;23.60;58.20;;;;;;4934401;29;20147;-73
2022/06/29 00:05:14;;;;;;;4.45;1.40;;;23.70;58.10;;;;;;4935514;29;20038;-73
2022/06/29 00:07:40;;;;;;;2.60;1.38;;;23.50;58.00;;;;;;4935021;29;20027;-73
2022/06/29 00:10:07;;;;;;;4.43;1.45;;;23.50;58.00;;;;;;4975312;23;20057;-71
2022/06/29 00:12:33;;;;;;;4.65;1.30;;;23.50;58.10;;;;;;4973414;28;20031;-71
2022/06/29 00:15:02;;;;;;;4.28;2.20;;;23.70;57.80;;;;;;4973721;28;20027;-71
2022/06/29 00:17:32;;;;;;;6.45;2.90;;;23.60;57.60;;;;;;4973322;28;20033;-71
2022/06/29 00:20:03;;;;;;;7.15;2.55;;;23.70;57.70;;;;;;4956467;28;20094;-71
2022/06/29 00:22:29;;;;;;;6.55;2.03;;;23.40;58.20;;;;;;4973577;28;20027;-73
2022/06/29 00:24:55;;;;;;;3.00;1.80;;;23.40;58.30;;;;;;4973517;28;20386;-72
2022/06/29 00:27:22;;;;;;;4.72;1.85;;;23.50;58.10;;;;;;4973075;28;20039;-73
2022/06/29 00:29:48;;;;;;;2.88;1.60;;;23.40;58.70;;;;;;4972173;28;20078;-71
2022/06/29 00:32:14;;;;;;;3.53;1.83;;;23.40;58.60;;;;;;4972195;28;20034;-71
2022/06/29 00:34:40;;;;;;;6.40;1.50;;;23.50;58.30;;;;;;4973242;28;20050;-70
2022/06/29 00:37:07;;;;;;;2.67;1.63;;;23.50;58.10;;;;;;4972931;28;20504;-72
2022/06/29 00:39:33;;;;;;;5.63;1.60;;;23.20;58.80;;;;;;4973265;28;20030;-71
2022/06/29 00:41:59;;;;;;;3.50;1.30;;;23.20;59.40;;;;;;4973250;28;20086;-71
2022/06/29 00:44:25;;;;;;;2.65;1.52;;;23.30;59.10;;;;;;4973273;28;20109;-71
2022/06/29 00:46:55;;;;;;;4.25;1.65;;;23.40;59.00;;;;;;4972810;28;20181;-72
2022/06/29 00:49:21;;;;;;;;;;;23.40;58.80;;;;;;4973706;28;20031;-72
2022/06/29 00:51:50;;;;;;;4.63;1.48;;;23.30;59.10;;;;;;4973095;28;19921;-72
2022/06/29 00:54:19;;;;;;;4.43;1.40;;;23.50;58.80;;;;;;4973278;28;20106;-71
2022/06/29 00:56:46;;;;;;;4.60;1.42;;;23.30;59.00;;;;;;4971549;28;20110;-72
2022/06/29 00:59:15;;;;;;;2.38;1.40;;;23.40;58.90;;;;;;4973133;28;20031;-72
2022/06/29 01:01:42;;;;;;;3.50;1.33;;;23.40;58.90;;;;;;4971880;28;20037;-72
2022/06/29 01:04:08;;;;;;;5.93;1.55;;;23.40;58.80;;;;;;4971964;28;20455;-72
2022/06/29 01:06:34;;;;;;;3.25;1.40;;;23.00;59.80;;;;;;4972649;28;20034;-72
2022/06/29 01:09:00;;;;;;;2.10;1.30;;;22.90;60.00;;;;;;4972908;28;20027;-72
2022/06/29 01:11:26;;;;;;;3.72;1.45;;;22.90;60.30;;;;;;4971841;28;20041;-71
2022/06/29 01:13:52;;;;;;;2.55;1.40;;;23.20;59.80;;;;;;4971775;28;20039;-71
2022/06/29 01:16:18;;;;;;;2.85;1.45;;;23.30;59.50;;;;;;4972649;28;20077;-72
2022/06/29 01:18:44;;;;;;;3.33;1.60;;;23.30;59.40;;;;;;4972884;28;20023;-71
2022/06/29 01:21:11;;;;;;;2.45;1.38;;;23.30;59.40;;;;;;4972860;28;20049;-72
2022/06/29 01:23:37;;;;;;;5.47;1.75;;;23.30;59.20;;;;;;4971835;28;20130;-72
2022/06/29 01:26:04;;;;;;;2.72;1.38;;;23.40;59.10;;;;;;4972544;28;20022;-72
2022/06/29 01:28:31;;;;;;;4.15;1.55;;;23.50;59.00;;;;;;4971721;28;20027;-71
2022/06/29 01:30:58;;;;;;;5.63;2.35;;;23.40;59.20;;;;;;4971637;28;20035;-71
2022/06/29 01:33:24;;;;;;;6.03;1.58;;;23.10;59.70;;;;;;4971531;28;20027;-71
2022/06/29 01:35:50;;;;;;;3.05;1.38;;;23.30;59.60;;;;;;4972475;28;20055;-71
2022/06/29 01:38:18;;;;;;;4.57;1.75;;;23.20;59.80;;;;;;4971677;28;20038;-72
2022/06/29 01:40:44;;;;;;;5.50;1.48;;;23.30;59.60;;;;;;4971559;28;20042;-72
2022/06/29 01:43:10;;;;;;;2.17;1.38;;;23.20;59.60;;;;;;4971642;28;20027;-71
2022/06/29 01:45:35;;;;;;;1.95;1.42;;;23.40;59.50;;;;;;4973028;28;20031;-71
2022/06/29 01:48:01;;;;;;;2.03;1.17;;;23.00;60.50;;;;;;4975053;28;20041;-71
2022/06/29 01:50:27;;;;;;;2.17;1.50;;;23.10;60.40;;;;;;4975088;28;20046;-72
2022/06/29 01:52:53;;;;;;;3.15;1.52;;;23.10;60.20;;;;;;4976220;28;20041;-72
2022/06/29 01:55:19;;;;;;;3.70;1.80;;;23.00;60.40;;;;;;4976392;28;20054;-72
2022/06/29 01:57:46;;;;;;;4.20;1.80;;;22.80;60.90;;;;;;4943072;28;20043;-72
2022/06/29 02:00:12;;;;;;;4.43;1.58;;;22.80;61.10;;;;;;4976122;28;20030;-72
2022/06/29 02:02:38;;;;;;;2.25;1.52;;;22.90;60.90;;;;;;4975032;28;20486;-71
2022/06/29 02:05:04;;;;;;;3.58;1.63;;;23.10;61.10;;;;;;4976093;28;20085;-72
2022/06/29 02:07:30;;;;;;;2.42;1.60;;;23.10;60.40;;;;;;4975728;28;20026;-71
2022/06/29 02:09:56;;;;;;;5.40;1.65;;;23.10;60.30;;;;;;4974679;28;20483;-71
2022/06/29 02:12:22;;;;;;;3.80;1.73;;;23.10;60.20;;;;;;4975876;28;20037;-72
2022/06/29 02:14:48;;;;;;;3.90;1.42;;;23.20;60.00;;;;;;4958793;28;20031;-71
2022/06/29 02:17:13;;;;;;;3.60;1.38;;;22.90;60.50;;;;;;4975615;28;20026;-71
2022/06/29 02:19:39;;;;;;;2.72;1.45;;;22.60;61.00;;;;;;4974465;28;20031;-71
2022/06/29 02:22:05;;;;;;;1.85;1.30;;;22.80;60.90;;;;;;4974620;28;20101;-71
2022/06/29 02:24:31;;;;;;;4.25;1.50;;;22.90;60.60;;;;;;4975874;28;20102;-71
2022/06/29 02:26:57;;;;;;;2.67;1.38;;;23.00;60.50;;;;;;4975316;28;20031;-71
2022/06/29 02:29:23;;;;;;;2.97;1.38;;;22.90;60.30;;;;;;4974607;28;20435;-71
2022/06/29 02:34:44;;;;;;;4.07;1.60;;;22.80;60.40;;;;;;4974781;28;20035;-71
2022/06/29 02:37:11;;;;;;;2.58;1.30;;;23.00;60.40;;;;;;4975370;28;20434;-71
2022/06/29 02:39:38;;;;;;;2.88;1.50;;;23.10;60.10;;;;;;4974150;28;20085;-71
2022/06/29 02:42:07;;;;;;;3.60;1.60;;;23.00;60.10;;;;;;4975521;28;20038;-71
2022/06/29 02:44:33;;;;;;;2.08;1.40;;;22.80;60.60;;;;;;4975414;28;20037;-72
2022/06/29 02:46:59;;;;;;;3.78;1.40;;;22.50;61.30;;;;;;4974874;28;20031;-70
2022/06/29 02:49:24;;;;;;;2.92;1.50;;;22.60;61.50;;;;;;4974030;28;20035;-71
2022/06/29 02:51:50;;;;;;;2.95;1.50;;;22.70;61.20;;;;;;4974299;28;20039;-71
2022/06/29 02:54:16;;;;;;;2.50;1.35;;;22.70;61.00;;;;;;4974076;28;20042;-71
2022/06/29 02:56:42;;;;;;;2.40;1.33;;;22.60;61.10;;;;;;4974831;28;20034;-71
2022/06/29 02:59:08;;;;;;;4.82;1.90;;;22.70;61.20;;;;;;4957890;28;20049;-70
2022/06/29 03:01:33;;;;;;;4.38;1.48;;;22.80;60.90;;;;;;4975119;28;20054;-71
2022/06/29 03:04:00;;;;;;;2.28;1.38;;;22.90;60.50;;;;;;4974967;28;20065;-70
2022/06/29 03:06:26;;;;;;;3.63;1.60;;;23.00;60.30;;;;;;4974761;28;20438;-70
2022/06/29 03:08:52;;;;;;;4.07;1.75;;;23.00;60.30;;;;;;4974839;28;20031;-70
2022/06/29 03:11:17;;;;;;;2.65;1.70;;;22.90;60.50;;;;;;4974893;28;20480;-70
2022/06/29 03:13:43;;;;;;;4.97;1.60;;;22.90;60.50;;;;;;4973511;28;20082;-71
2022/06/29 03:16:09;;;;;;;5.40;1.55;;;22.90;60.60;;;;;;4974686;28;20097;-71
2022/06/29 03:18:35;;;;;;;5.50;1.65;;;23.00;60.40;;;;;;4941701;28;20050;-72
2022/06/29 03:21:01;;;;;;;2.22;1.50;;;23.00;60.40;;;;;;4974759;28;20150;-71
2022/06/29 03:23:26;;;;;;;3.80;1.65;;;22.90;60.30;;;;;;4974697;28;20086;-71
2022/06/29 03:25:52;;;;;;;2.65;1.35;;;22.90;60.50;;;;;;4974395;28;20085;-71
2022/06/29 03:28:18;;;;;;;3.00;1.58;;;23.00;60.30;;;;;;4973169;28;20030;-71
2022/06/29 03:30:44;;;;;;;3.97;1.80;;;23.00;60.40;;;;;;4974611;28;20109;-71
2022/06/29 03:33:10;;;;;;;3.03;1.67;;;22.90;60.50;;;;;;4973177;28;20458;-72
2022/06/29 03:35:35;;;;;;;4.05;1.67;;;22.80;60.70;;;;;;4957169;28;20030;-71
2022/06/29 03:38:01;;;;;;;4.13;1.70;;;22.70;60.70;;;;;;4974391;28;20050;-71
2022/06/29 03:40:27;;;;;;;2.40;1.50;;;22.80;60.90;;;;;;4973081;28;20110;-71
2022/06/29 03:42:54;;;;;;;3.25;1.45;;;22.70;60.90;;;;;;4974333;28;20035;-71
2022/06/29 03:45:20;;;;;;;4.80;1.40;;;22.80;60.70;;;;;;4974275;28;20563;-71
2022/06/29 03:47:47;;;;;;;6.63;2.10;;;22.80;60.70;;;;;;4972920;28;20097;-71
2022/06/29 03:50:13;;;;;;;4.40;2.08;;;22.80;60.80;;;;;;4973102;28;20502;-71
2022/06/29 03:52:39;;;;;;;5.47;2.55;;;22.70;60.90;;;;;;4989005;28;20061;-71
2022/06/29 03:55:06;;;;;;;3.33;2.20;;;22.80;60.90;;;;;;4972849;28;20480;-71
2022/06/29 03:57:32;;;;;;;6.80;1.85;;;22.90;60.50;;;;;;4972846;28;20479;-71
2022/06/29 03:59:58;;;;;;;8.82;1.75;;;22.60;60.70;;;;;;4973963;28;20577;-71
2022/06/29 04:02:25;;;;;;;3.28;1.73;;;22.60;60.90;;;;;;4974033;28;20031;-71
2022/06/29 04:04:52;;;;;;;2.97;1.38;;;22.60;60.80;;;;;;4972741;28;20198;-71
2022/06/29 04:07:18;;;;;;;4.22;1.30;;;22.70;60.70;;;;;;4972172;28;20102;-71
2022/06/29 04:09:44;;;;;;;2.70;1.48;;;22.80;60.50;;;;;;4972463;28;20073;-71
2022/06/29 04:12:10;;;;;;;3.67;1.40;;;22.70;60.60;;;;;;4973713;28;20036;-71
2022/06/29 04:14:35;;;;;;;2.10;1.27;;;22.70;60.70;;;;;;4973883;28;20029;-71
2022/06/29 04:17:02;;;;;;;4.95;2.00;;;22.80;60.40;;;;;;4972308;28;20110;-71
2022/06/29 04:19:28;;;;;;;3.97;2.20;;;22.80;60.30;;;;;;4973498;28;20102;-71
2022/06/29 04:21:54;;;;;;;6.82;2.80;;;22.80;60.40;;;;;;4972526;28;20714;-71
2022/06/29 04:24:21;;;;;;;5.82;2.42;;;22.80;60.40;;;;;;4973476;28;20035;-71
2022/06/29 04:26:47;;;;;;;6.60;3.55;;;22.50;60.80;;;;;;4972207;28;20035;-71
2022/06/29 04:29:13;;;;;;;3.22;1.90;;;22.60;60.90;;;;;;4972209;28;20034;-71
2022/06/29 04:31:40;;;;;;;2.85;1.70;;;22.60;61.00;;;;;;4972516;28;20431;-71
2022/06/29 04:34:06;;;;;;;4.88;2.00;;;22.50;61.20;;;;;;4973293;28;20030;-72
2022/06/29 04:36:31;;;;;;;3.17;1.50;;;22.20;61.90;;;;;;4972160;28;20030;-71
2022/06/29 04:38:57;;;;;;;4.13;1.90;;;22.30;62.10;;;;;;4973174;28;20499;-71
2022/06/29 04:41:23;;;;;;;5.25;2.55;;;22.10;62.40;;;;;;4973297;28;20055;-71
2022/06/29 04:43:49;;;;;;;5.13;2.15;;;22.30;62.10;;;;;;4972062;28;20475;-72
2022/06/29 04:46:24;;;;;;;4.20;2.45;;;22.40;62.10;;;;;;4972947;28;20157;-71
2022/06/29 04:48:56;;;;;;;6.38;2.30;;;22.50;62.00;;;;;;4973159;28;20031;-72
2022/06/29 04:51:23;;;;;;;6.35;1.80;;;22.10;62.80;;;;;;4973205;28;20030;-71
2022/06/29 04:53:53;;;;;;;5.32;2.20;;;22.20;62.70;;;;;;4971788;28;20031;-71
2022/06/29 04:56:21;;;;;;;4.40;1.52;;;22.50;62.60;;;;;;4972878;28;20023;-71
2022/06/29 04:58:47;;;;;;;5.32;1.35;;;22.70;61.70;;;;;;4973174;28;20059;-71
2022/06/29 05:01:12;;;;;;;5.90;2.53;;;22.60;61.80;;;;;;4973194;28;20129;-71
2022/06/29 05:03:38;;;;;;;3.45;1.90;;;22.70;61.70;;;;;;4973131;28;20027;-72
2022/06/29 05:06:04;;;;;;;7.57;3.10;;;22.50;61.90;;;;;;4971357;28;20038;-71
2022/06/29 05:08:30;;;;;;;6.28;3.15;;;22.40;62.50;;;;;;4972794;28;20037;-71
2022/06/29 05:10:56;;;;;;;7.13;2.03;;;22.40;62.60;;;;;;4973041;28;20038;-71
2022/06/29 05:13:22;;;;;;;7.00;2.40;;;22.60;62.30;;;;;;4972936;28;20034;-71
2022/06/29 05:15:48;;;;;;;4.93;1.88;;;22.70;61.90;;;;;;4972614;28;20163;-71
2022/06/29 05:18:14;;;;;;;6.47;2.33;;;22.50;62.40;;;;;;4972863;28;20027;-72
2022/06/29 05:20:40;;;;;;;6.90;2.38;;;22.70;62.00;;;;;;4973848;28;20490;-71
2022/06/29 05:23:05;;;;;;;11.93;2.50;;;22.70;61.70;;;;;;4975596;28;20106;-71
2022/06/29 05:25:32;;;;;;;4.53;2.00;;;22.70;61.70;;;;;;4975573;28;20031;-71
2022/06/29 05:27:58;;;;;;;4.22;2.25;;;22.50;62.30;;;;;;4976676;28;20034;-71
2022/06/29 05:30:24;;;;;;;3.60;1.75;;;22.70;61.80;;;;;;4959283;28;20403;-71
2022/06/29 05:32:50;;;;;;;2.47;1.60;;;22.70;61.70;;;;;;4976682;28;20034;-71
2022/06/29 05:35:16;;;;;;;6.93;1.88;;;22.60;62.00;;;;;;4976568;28;20027;-71
2022/06/29 05:37:42;;;;;;;5.78;1.92;;;22.60;61.80;;;;;;4975107;28;20033;-71
2022/06/29 05:40:08;;;;;;;9.65;2.80;;;22.70;61.70;;;;;;4976568;28;20037;-71
2022/06/29 05:42:34;;;;;;;5.13;1.80;;;22.80;62.10;;;;;;4975347;28;20031;-71
2022/06/29 05:45:00;;;;;;;4.45;2.13;;;22.90;61.20;;;;;;4959418;28;20483;-71
2022/06/29 05:47:26;;;;;;;6.75;1.80;;;22.80;61.10;;;;;;4975184;28;20372;-71
2022/06/29 05:49:52;;;;;;;5.38;1.90;;;22.90;60.80;;;;;;4958931;28;20038;-71
2022/06/29 05:52:18;;;;;;;4.32;1.75;;;22.90;60.60;;;;;;4976325;28;20034;-71
2022/06/29 05:54:44;;;;;;;8.52;1.75;;;22.90;60.30;;;;;;4975248;28;20034;-72
2022/06/29 05:57:11;;;;;;;8.55;1.60;;;22.90;59.80;;;;;;4976059;28;20399;-71
2022/06/29 05:59:37;;;;;;;6.30;1.83;;;22.90;59.60;;;;;;4991142;28;20030;-71
2022/06/29 06:02:03;;;;;;;5.70;2.00;;;23.00;59.30;;;;;;4975345;28;20545;-71
2022/06/29 06:04:29;;;;;;;7.75;2.05;;;23.00;59.20;;;;;;4976042;28;20114;-70
2022/06/29 06:06:54;;;;;;;4.88;2.45;;;23.00;58.20;;;;;;4975771;28;20022;-71
2022/06/29 06:09:25;;;;;;;9.13;1.70;;;23.10;57.70;;;;;;4984320;23;20449;-74
2022/06/29 06:11:51;;;;;;;7.18;1.90;;;23.00;57.80;;;;;;4979359;28;20476;-71
2022/06/29 06:14:16;;;;;;;9.43;2.25;;;23.00;57.80;;;;;;4956579;28;20050;-71
2022/06/29 06:16:42;;;;;;;3.65;1.55;;;23.00;57.90;;;;;;4955107;29;20487;-71
2022/06/29 06:19:08;;;;;;;4.82;1.55;;;23.00;57.50;;;;;;4952366;28;20392;-71
2022/06/29 06:21:35;;;;;;;7.07;2.05;;;22.80;56.90;;;;;;4937344;29;20107;-71
2022/06/29 06:24:01;;;;;;;6.60;2.80;;;22.90;57.20;;;;;;4937457;29;20035;-71
2022/06/29 06:26:27;;;;;;;6.55;2.90;;;23.00;56.40;;;;;;4936971;29;20031;-71
2022/06/29 06:28:53;;;;;;;10.27;3.55;;;23.10;56.00;;;;;;4937284;29;20370;-71
2022/06/29 06:31:19;;;;;;;3.88;1.90;;;23.10;55.70;;;;;;4936778;29;20508;-71
2022/06/29 06:33:44;;;;;;;6.40;2.10;;;23.10;55.40;;;;;;4951847;29;20682;-71
2022/06/29 06:36:10;;;;;;;3.95;1.33;;;22.90;55.60;;;;;;4951495;28;20023;-72
2022/06/29 06:38:36;;;;;;;10.70;1.92;;;23.10;54.70;;;;;;4937065;29;20503;-72
2022/06/29 06:43:46;;;;;;;8.38;2.67;;;23.00;53.80;;;;;;4951997;29;20031;-72
2022/06/29 06:46:12;;;;;;;7.25;2.63;;;23.00;54.40;;;;;;4936594;29;20031;-72
2022/06/29 06:48:37;;;;;;;8.60;1.88;;;23.00;54.70;;;;;;4936781;29;20035;-72
2022/06/29 06:51:03;;;;;;;10.30;2.90;;;22.90;54.80;;;;;;4936809;29;20020;-73
2022/06/29 06:53:29;;;;;;;13.65;5.70;;;23.00;54.90;;;;;;4935585;29;20133;-73
2022/06/29 06:55:55;;;;;;;9.23;4.03;;;23.00;54.90;;;;;;4935199;29;20273;-72
2022/06/29 06:58:21;;;;;;;6.15;2.13;;;23.00;54.60;;;;;;4935460;29;20032;-73
2022/06/29 07:00:46;;;;;;;4.60;1.95;;;22.80;54.40;;;;;;4936550;29;20055;-72
2022/06/29 07:03:12;;;;;;;5.28;1.60;;;22.80;53.80;;;;;;4936761;29;20040;-72
2022/06/29 07:05:38;;;;;;;3.97;1.58;;;22.70;53.60;;;;;;4936214;29;20082;-72
2022/06/29 07:08:04;;;;;;;2.50;1.30;;;22.70;53.90;;;;;;4935434;29;20031;-72
2022/06/29 07:10:30;;;;;;;3.10;1.40;;;22.90;53.50;;;;;;4936303;29;20480;-72
2022/06/29 07:12:55;;;;;;;6.88;1.67;;;23.00;53.20;;;;;;4936427;29;20031;-72
2022/06/29 07:15:21;;;;;;;3.42;1.70;;;23.00;53.10;;;;;;4936276;29;20030;-72
2022/06/29 07:17:47;;;;;;;6.78;1.40;;;23.00;52.70;;;;;;4936153;29;20046;-72
2022/06/29 07:20:13;;;;;;;2.83;1.38;;;22.90;52.00;;;;;;4936209;29;20051;-72
2022/06/29 07:22:39;;;;;;;5.82;1.50;;;22.70;51.80;;;;;;4936357;29;20074;-72
2022/06/29 07:25:05;;;;;;;3.70;1.58;;;22.80;52.00;;;;;;4936307;29;20557;-73
2022/06/29 07:27:31;;;;;;;5.47;1.70;;;22.90;52.40;;;;;;4934690;29;20480;-72
2022/06/29 07:29:56;;;;;;;3.05;1.10;;;22.90;51.50;;;;;;4936081;29;20170;-72
2022/06/29 07:32:22;;;;;;;8.02;1.73;;;23.00;51.40;;;;;;4934734;29;20038;-72
2022/06/29 07:34:48;;;;;;;3.00;1.58;;;22.90;51.10;;;;;;4950789;28;20392;-73
2022/06/29 07:37:14;;;;;;;3.83;1.70;;;23.00;51.40;;;;;;4935706;29;20054;-73
2022/06/29 07:39:40;;;;;;;4.10;1.50;;;23.10;51.10;;;;;;4935882;29;20031;-72
2022/06/29 07:42:06;;;;;;;4.00;1.75;;;23.10;51.00;;;;;;4935524;29;20498;-72
2022/06/29 07:44:31;;;;;;;4.65;1.40;;;23.10;51.20;;;;;;4935492;29;20107;-72
2022/06/29 07:46:57;;;;;;;5.75;1.65;;;23.00;51.20;;;;;;4935493;29;20514;-73
2022/06/29 07:49:30;;;;;;;6.28;1.55;;;22.90;51.00;;;;;;4934349;29;20027;-72
2022/06/29 07:51:56;;;;;;;4.38;1.40;;;23.00;51.30;;;;;;4950510;29;20079;-72
2022/06/29 07:54:22;;;;;;;3.72;1.50;;;23.10;51.00;;;;;;4934410;29;20036;-72
2022/06/29 07:56:48;;;;;;;3.42;1.15;;;23.20;50.80;;;;;;4935367;29;20461;-72
2022/06/29 07:59:14;;;;;;;3.20;1.38;;;23.30;50.90;;;;;;4935522;29;20034;-72
2022/06/29 08:01:39;;;;;;;3.35;1.30;;;23.40;50.50;;;;;;4935188;29;20027;-72
2022/06/29 08:04:05;;;;;;;3.13;1.20;;;23.50;51.10;;;;;;4935476;29;20036;-72
2022/06/29 08:06:31;;;;;;;5.88;1.60;;;23.60;50.90;;;;;;4935348;29;20473;-73
2022/06/29 08:08:57;;;;;;;5.53;1.52;;;23.70;51.50;;;;;;4934114;29;20054;-73
2022/06/29 08:11:23;;;;;;;5.13;1.60;;;23.70;51.60;;;;;;4935540;29;20697;-73
2022/06/29 08:13:49;;;;;;;6.40;1.83;;;23.80;53.20;;;;;;4931572;29;20031;-73
2022/06/29 08:16:15;;;;;;;5.78;1.70;;;23.90;52.20;;;;;;4934912;29;20069;-73
2022/06/29 08:18:41;;;;;;;7.32;1.80;;;24.00;53.10;;;;;;4935112;29;20369;-73
2022/06/29 08:21:07;;;;;;;10.35;2.05;;;24.00;53.70;;;;;;4917710;29;20035;-73
2022/06/29 08:23:33;;;;;;;7.38;1.77;;;24.00;51.70;;;;;;4934196;29;20130;-72
2022/06/29 08:25:59;;;;;;;6.00;1.95;;;24.00;53.30;;;;;;4933375;29;20031;-73
2022/06/29 08:28:26;;;;;;;11.35;3.00;;;24.00;53.10;;;;;;4940611;29;20027;-73
2022/06/29 08:30:55;;;;;;;10.02;4.57;;;24.10;52.70;;;;;;4954062;28;20024;-74
2022/06/29 08:33:21;;;;;;;8.63;3.90;;;24.10;51.70;;;;;;4952544;29;20027;-73
2022/06/29 08:35:50;;;;;;;11.10;3.85;;;24.10;51.20;;;;;;4953652;28;20034;-73
2022/06/29 08:38:16;;;;;;;10.27;4.22;;;24.10;51.10;;;;;;4953621;28;20023;-74
2022/06/29 08:40:47;;;;;;;11.43;3.15;;;24.10;51.00;;;;;;4951192;28;20070;-73
2022/06/29 08:43:15;;;;;;;6.15;3.00;;;24.10;51.70;;;;;;4954030;28;20078;-73
2022/06/29 08:45:45;;;;;;;13.07;4.03;;;24.10;51.00;;;;;;4953695;28;20032;-74
2022/06/29 08:48:12;;;;;;;11.50;3.95;;;24.20;51.30;;;;;;4954416;28;20030;-73
2022/06/29 08:50:40;;;;;;;10.63;3.40;;;24.20;52.00;;;;;;4953970;28;20031;-74
2022/06/29 08:53:08;;;;;;;11.70;3.70;;;24.20;51.70;;;;;;4940384;28;20070;-73
2022/06/29 08:55:39;;;;;;;11.27;3.67;;;24.20;52.30;;;;;;4933734;29;20055;-73
2022/06/29 08:58:06;;;;;;;11.05;3.55;;;24.20;52.80;;;;;;4933292;29;20038;-73
2022/06/29 09:00:36;;;;;;;10.10;3.10;;;24.20;52.30;;;;;;4933289;29;20031;-74
2022/06/29 09:03:04;;;;;;;12.35;3.83;;;24.20;52.30;;;;;;4942898;29;20397;-74
2022/06/29 09:05:31;;;;;;;16.30;3.60;;;24.20;51.60;;;;;;4925524;29;20515;-74
2022/06/29 09:07:57;;;;;;;3.67;1.50;;;24.20;52.30;;;;;;4932049;29;20040;-73
2022/06/29 09:10:24;;;;;;;6.03;2.53;;;24.10;44.30;;;;;;4932587;29;20055;-73
2022/06/29 09:12:52;;;;;;;7.15;2.13;;;24.10;47.40;;;;;;4949137;29;20062;-73
2022/06/29 09:15:38;;;;;;;6.78;3.78;;;24.00;48.30;;;;;;4948918;29;20436;-72
2022/06/29 09:18:21;;;;;;;26.27;4.47;;;24.10;47.40;;;;;;4932920;29;20036;-73
2022/06/29 09:20:56;;;;;;;2.97;1.50;;;24.10;47.60;;;;;;4917340;29;20120;-73
2022/06/29 09:23:22;;;;;;;2.40;1.30;;;24.00;45.20;;;;;;4932666;29;20489;-71
2022/06/29 09:25:48;;;;;;;9.50;2.15;;;23.90;44.80;;;;;;4929724;29;20039;-71
2022/06/29 09:28:25;;;;;;;11.98;2.30;;;23.90;48.10;;;;;;4934251;29;20396;-72
2022/06/29 09:30:52;;;;;;;5.68;2.28;;;24.10;47.70;;;;;;4934192;29;20032;-71
2022/06/29 09:33:21;;;;;;;8.10;2.10;;;24.20;47.10;;;;;;4932810;29;20036;-72
2022/06/29 09:36:07;;;;;;;11.55;2.33;;;24.20;48.30;;;;;;4932247;29;20059;-72
2022/06/29 09:38:33;;;;;;;7.90;1.85;;;24.20;48.70;;;;;;4934252;29;20465;-72
2022/06/29 09:40:59;;;;;;;7.95;2.13;;;24.20;47.10;;;;;;4932960;29;20031;-72
2022/06/29 09:43:26;;;;;;;10.63;2.85;;;24.20;49.50;;;;;;4919118;29;20035;-72
2022/06/29 09:45:53;;;;;;;6.75;2.60;;;24.20;49.30;;;;;;4934106;29;20746;-72
2022/06/29 09:48:22;;;;;;;10.05;3.22;;;24.30;50.10;;;;;;4934332;29;20027;-71
2022/06/29 09:50:50;;;;;;;9.40;2.63;;;24.30;50.20;;;;;;4932933;29;20559;-71
2022/06/29 09:53:18;;;;;;;9.55;2.90;;;24.30;50.10;;;;;;4934074;29;20107;-72
2022/06/29 09:55:48;;;;;;;7.97;3.00;;;24.40;50.20;;;;;;4929183;29;20039;-72
2022/06/29 09:58:18;;;;;;;12.15;2.60;;;24.40;49.90;;;;;;4933548;29;20032;-71
2022/06/29 10:03:31;;;;;;;5.68;2.25;;;24.50;50.20;;;;;;4949556;28;20042;-72
2022/06/29 10:06:04;;;;;;;8.18;2.40;;;24.50;50.10;;;;;;4965414;28;20090;-72
2022/06/29 10:08:32;;;;;;;6.90;2.78;;;24.50;49.90;;;;;;4937443;29;20024;-71
2022/06/29 10:13:39;;;;;;;6.20;2.30;;;24.50;50.10;;;;;;4949821;28;20043;-72
2022/06/29 10:13:55;;;;;;;5.72;2.00;;;24.50;50.30;;;;;;4941844;29;20579;-71
2022/06/29 10:16:32;;;;;;;8.63;2.38;;;24.50;50.70;;;;;;4947123;28;20027;-72
2022/06/29 10:19:33;;;;;;;17.63;7.53;;;24.50;50.00;;;;;;4935880;29;20036;-71
2022/06/29 10:22:01;;;;;;;8.95;4.75;;;24.50;47.60;;;;;;4935299;29;20568;-72
2022/06/29 10:24:28;;;;;;;15.85;7.25;;;24.40;49.10;;;;;;4935055;29;20039;-72
2022/06/29 10:26:54;;;;;;;14.82;5.95;;;24.50;49.90;;;;;;4950858;29;20114;-71
2022/06/29 10:29:29;;;;;;;14.30;6.78;;;24.50;50.00;;;;;;4952746;28;20477;-71
2022/06/29 10:31:56;;;;;;;13.55;6.57;;;24.50;50.00;;;;;;4953298;28;20106;-71
2022/06/29 10:34:31;;;;;;;15.32;7.25;;;24.50;50.20;;;;;;4933307;29;20495;-71
2022/06/29 10:37:04;;;;;;;17.85;7.80;;;24.50;50.20;;;;;;4945913;28;20032;-72
2022/06/29 10:39:41;;;;;;;14.63;7.60;;;24.50;50.20;;;;;;4936795;29;20072;-72
2022/06/29 10:45:24;;;;;;;12.93;7.43;;;24.50;50.30;;;;;;4936585;29;20040;-71
2022/06/29 10:47:56;;;;;;;13.20;7.57;;;24.50;50.50;;;;;;4936681;29;20396;-74
2022/06/29 10:50:28;;;;;;;16.83;8.13;;;24.50;50.50;;;;;;4935317;29;20476;-72
2022/06/29 10:52:56;;;;;;;15.63;7.70;;;24.60;50.40;;;;;;4936611;29;20118;-71
2022/06/29 10:55:24;;;;;;;14.63;8.20;;;24.50;50.60;;;;;;4936524;29;20031;-73
2022/06/29 10:57:50;;;;;;;14.15;7.85;;;24.60;51.70;;;;;;4936379;29;20106;-72
2022/06/29 11:00:24;;;;;;;16.25;7.50;;;24.60;51.90;;;;;;4936239;29;20477;-72
2022/06/29 11:02:50;;;;;;;15.43;7.30;;;24.70;51.70;;;;;;4936693;29;20043;-72
2022/06/29 11:05:15;;;;;;;11.40;6.55;;;24.70;51.60;;;;;;4936399;29;20032;-72
2022/06/29 11:13:29;;;;;;;14.23;6.47;;;24.70;52.00;;;;;;4926141;29;20047;-73
2022/06/29 11:15:57;;;;;;;11.15;5.78;;;24.70;52.10;;;;;;4935953;29;20047;-71
2022/06/29 11:18:27;;;;;;;12.65;6.75;;;24.60;52.10;;;;;;4935122;29;20032;-71
2022/06/29 11:20:54;;;;;;;13.27;5.40;;;24.60;52.10;;;;;;4935724;29;20031;-71
2022/06/29 11:23:22;;;;;;;16.48;6.13;;;24.60;52.30;;;;;;4935786;29;20027;-71
2022/06/29 11:25:49;;;;;;;12.25;6.10;;;24.60;51.70;;;;;;4935721;29;20094;-71
2022/06/29 11:28:19;;;;;;;15.88;6.35;;;24.60;52.10;;;;;;4939979;29;20476;-71
2022/06/29 11:31:05;;;;;;;;;;;24.60;52.00;;;;;;4955552;28;20072;-71
2022/06/29 11:33:39;;;;;;;13.77;6.28;;;24.60;52.00;;;;;;4954663;29;20012;-71
2022/06/29 11:36:16;;;;;;;12.32;5.90;;;24.60;51.80;;;;;;4937594;29;20550;-71
2022/06/29 11:38:48;;;;;;;12.07;5.50;;;24.60;51.90;;;;;;4955034;28;20035;-72
2022/06/29 11:41:14;;;;;;;11.73;5.80;;;24.60;51.70;;;;;;4955099;28;20023;-71
2022/06/29 11:43:41;;;;;;;13.52;5.85;;;24.60;51.90;;;;;;4934816;29;20431;-71
2022/06/29 11:46:21;;;;;;;12.52;5.28;;;24.60;52.10;;;;;;4935620;29;20082;-71
2022/06/29 11:51:35;;;;;;;11.95;5.22;;;24.60;52.10;;;;;;4935682;29;20390;-71
2022/06/29 11:54:06;;;;;;;11.18;5.55;;;24.60;52.00;;;;;;4926672;29;20035;-71
2022/06/29 11:56:32;;;;;;;11.38;5.47;;;24.60;51.80;;;;;;4935075;29;20052;-71
2022/06/29 11:59:04;;;;;;;13.70;5.90;;;24.60;52.00;;;;;;4935313;29;20780;-71
2022/06/29 12:01:30;;;;;;;11.50;5.93;;;24.60;51.90;;;;;;4935494;29;20047;-71
2022/06/29 12:03:58;;;;;;;12.68;6.35;;;24.60;51.90;;;;;;4935446;29;20073;-71
2022/06/29 12:06:28;;;;;;;11.18;5.10;;;24.60;51.90;;;;;;4933757;29;20491;-72
2022/06/29 12:08:54;;;;;;;;;;;24.60;52.10;;;;;;4933691;29;20540;-71
2022/06/29 12:11:21;;;;;;;10.23;5.03;;;24.60;52.30;;;;;;4975909;23;19922;-71
2022/06/29 12:13:47;;;;;;;11.48;5.07;;;24.60;52.50;;;;;;4953871;28;20031;-71
2022/06/29 12:16:14;;;;;;;9.77;4.93;;;24.70;52.70;;;;;;4953812;28;20031;-71
2022/06/29 12:18:41;;;;;;;7.85;3.65;;;24.60;52.70;;;;;;4952572;28;20158;-70
2022/06/29 12:21:08;;;;;;;9.80;4.65;;;24.60;52.70;;;;;;4954250;28;20027;-71
2022/06/29 12:23:34;;;;;;;11.00;4.50;;;24.60;52.60;;;;;;4953039;28;20039;-71
2022/06/29 12:26:00;;;;;;;8.85;4.88;;;24.60;52.60;;;;;;4968578;28;20324;-71
2022/06/29 12:28:26;;;;;;;10.55;4.45;;;24.60;52.60;;;;;;4968047;28;20038;-70
2022/06/29 12:30:52;;;;;;;11.25;4.78;;;24.60;52.70;;;;;;4953883;28;20062;-71
2022/06/29 12:33:19;;;;;;;8.00;4.10;;;24.60;52.60;;;;;;4953871;29;20487;-71
2022/06/29 12:35:46;;;;;;;10.80;5.00;;;24.60;52.50;;;;;;4953835;29;20106;-71
2022/06/29 12:38:12;;;;;;;9.35;4.03;;;24.60;52.50;;;;;;4968792;28;20129;-71
2022/06/29 12:40:38;;;;;;;14.23;6.55;;;24.60;51.50;;;;;;4952310;28;20523;-71
2022/06/29 12:43:05;;;;;;;13.68;6.50;;;24.60;50.10;;;;;;4968972;28;20027;-70
2022/06/29 12:45:31;;;;;;;12.68;5.95;;;24.60;50.30;;;;;;4953764;29;20120;-74
2022/06/29 12:47:57;;;;;;;17.55;6.10;;;24.60;50.30;;;;;;4953790;29;20476;-74
2022/06/29 12:50:23;;;;;;;17.13;5.80;;;24.60;48.50;;;;;;4952466;28;20110;-75
2022/06/29 12:52:51;;;;;;;16.13;5.10;;;24.60;47.20;;;;;;4968601;28;20034;-74
2022/06/29 12:55:21;;;;;;;10.25;3.65;;;24.60;46.70;;;;;;4952516;29;20399;-74
2022/06/29 12:57:48;;;;;;;11.60;5.50;;;24.80;46.10;;;;;;4951972;29;20517;-74
2022/06/29 13:00:15;;;;;;;13.52;5.50;;;25.20;48.10;;;;;;4953579;28;20542;-72
2022/06/29 13:02:42;;;;;;;14.77;4.75;;;25.40;47.20;;;;;;4954046;29;20373;-72
2022/06/29 13:05:09;;;;;;;13.32;4.20;;;25.40;46.10;;;;;;4949530;28;20027;-72